Time;durP1;ratioP1;P1;durP2;ratioP2;P2;SDS_P1;SDS_P2;PMS_P1;PMS_P2;Temp;Humidity;BMP_temperature;BMP_pressure;BME280_temperature;BME280_humidity;BME280_pressure;Samples;Min_cycle;Max_cycle;Signal;HPM_P1;HPM_P2
2022/04/17 00:02:25;;;;;;;73.38;55.17;;;;;;;;;;8344156;28;27995;-59
2022/04/17 00:06:26;;;;;;;73.57;54.60;;;;;;;;;;8345106;28;28225;-60
2022/04/17 00:10:26;;;;;;;73.70;53.10;;;;;;;;;;8347690;28;28239;-59
2022/04/17 00:14:26;;;;;;;67.78;47.25;;;;;;;;;;8350077;28;29401;-58
2022/04/17 00:18:27;;;;;;;68.38;48.30;;;;;;;;;;8348378;28;27737;-58
2022/04/17 00:22:30;;;;;;;66.07;47.65;;;;;;;;;;8345781;28;27835;-59
2022/04/17 00:26:30;;;;;;;63.47;46.83;;;;;;;;;;8345364;28;27637;-60
2022/04/17 00:30:30;;;;;;;64.75;46.70;;;;;;;;;;8347888;28;28610;-59
2022/04/17 00:34:31;;;;;;;59.80;44.40;;;;;;;;;;8350552;28;27509;-57
2022/04/17 00:38:31;;;;;;;65.93;46.30;;;;;;;;;;8350922;28;28411;-59
2022/04/17 00:42:31;;;;;;;63.50;44.85;;;;;;;;;;8349736;28;27749;-58
2022/04/17 00:46:31;;;;;;;57.42;42.97;;;;;;;;;;8350676;28;27662;-57
2022/04/17 00:50:31;;;;;;;61.67;44.47;;;;;;;;;;8348753;28;28012;-60
2022/04/17 00:54:33;;;;;;;58.72;43.55;;;;;;;;;;8349690;28;27223;-59
2022/04/17 00:58:36;;;;;;;51.70;39.95;;;;;;;;;;8349706;28;27829;-60
2022/04/17 01:02:36;;;;;;;55.88;41.65;;;;;;;;;;8349257;28;29190;-60
2022/04/17 01:06:38;;;;;;;53.85;40.30;;;;;;;;;;8348227;28;28002;-59
2022/04/17 01:10:38;;;;;;;53.20;39.20;;;;;;;;;;8344982;28;27587;-58
2022/04/17 01:14:39;;;;;;;49.97;38.53;;;;;;;;;;8350107;28;27943;-60
2022/04/17 01:18:52;;;;;;;49.95;36.65;;;;;;;;;;8350912;28;27576;-59
2022/04/17 01:26:55;;;;;;;48.80;36.50;;;;;;;;;;8348406;28;27506;-59
2022/04/17 01:27:12;;;;;;;50.15;36.25;;;;;;;;;;8351311;28;27641;-59
2022/04/17 01:31:13;;;;;;;51.80;37.03;;;;;;;;;;8350683;28;27920;-59
2022/04/17 01:35:13;;;;;;;45.78;36.05;;;;;;;;;;8350897;28;27575;-61
2022/04/17 01:39:13;;;;;;;49.05;35.15;;;;;;;;;;8347559;28;28196;-59
2022/04/17 01:43:14;;;;;;;48.25;32.75;;;;;;;;;;8348401;28;28076;-58
2022/04/17 01:47:14;;;;;;;45.25;34.92;;;;;;;;;;8349349;28;27988;-59
2022/04/17 01:51:17;;;;;;;42.13;33.17;;;;;;;;;;8349026;28;28167;-60
2022/04/17 01:55:17;;;;;;;43.13;32.28;;;;;;;;;;8332406;28;27542;-59
2022/04/17 01:59:18;;;;;;;41.95;32.90;;;;;;;;;;8350206;28;27678;-59
2022/04/17 02:03:18;;;;;;;41.10;31.15;;;;;;;;;;8349499;28;28122;-59
2022/04/17 02:07:18;;;;;;;42.53;31.33;;;;;;;;;;8346669;28;27663;-57
2022/04/17 02:11:19;;;;;;;40.47;30.33;;;;;;;;;;8352448;28;28057;-58
2022/04/17 02:15:19;;;;;;;37.92;29.15;;;;;;;;;;8356348;28;27592;-58
2022/04/17 02:19:19;;;;;;;37.03;28.58;;;;;;;;;;8353551;28;27856;-58
2022/04/17 02:23:20;;;;;;;37.08;29.05;;;;;;;;;;8355868;28;28236;-59
2022/04/17 02:27:20;;;;;;;37.85;29.15;;;;;;;;;;8354839;28;27657;-58
2022/04/17 02:31:20;;;;;;;36.08;27.55;;;;;;;;;;8352457;28;28215;-59
2022/04/17 02:35:20;;;;;;;33.38;26.40;;;;;;;;;;8353942;28;28482;-61
2022/04/17 02:39:21;;;;;;;35.42;26.40;;;;;;;;;;8350312;28;27987;-58
2022/04/17 02:43:21;;;;;;;37.20;26.73;;;;;;;;;;8353742;28;29064;-59
2022/04/17 02:51:40;;;;;;;33.75;24.92;;;;;;;;;;8350267;28;27620;-59
2022/04/17 02:55:40;;;;;;;30.42;23.67;;;;;;;;;;8358314;28;28093;-60
2022/04/17 02:59:40;;;;;;;35.83;25.63;;;;;;;;;;8353115;28;27632;-58
2022/04/17 03:08:00;;;;;;;33.90;24.90;;;;;;;;;;8356411;28;28012;-58
2022/04/17 03:12:00;;;;;;;30.20;23.43;;;;;;;;;;8352699;28;28091;-59
2022/04/17 03:16:00;;;;;;;28.73;22.23;;;;;;;;;;8357846;28;27977;-61
2022/04/17 03:20:01;;;;;;;27.80;20.85;;;;;;;;;;8352026;28;27963;-60
2022/04/17 03:24:01;;;;;;;27.60;20.23;;;;;;;;;;8357205;28;27925;-58
2022/04/17 03:28:02;;;;;;;27.25;21.33;;;;;;;;;;8355236;28;28346;-58
2022/04/17 03:32:02;;;;;;;26.08;20.08;;;;;;;;;;8353564;28;27548;-58
2022/04/17 03:36:03;;;;;;;26.85;19.98;;;;;;;;;;8356030;28;27530;-59
2022/04/17 03:40:03;;;;;;;28.30;20.30;;;;;;;;;;8350545;28;27530;-58
2022/04/17 03:44:04;;;;;;;25.20;18.90;;;;;;;;;;8349062;28;27818;-59
2022/04/17 03:48:05;;;;;;;25.63;19.27;;;;;;;;;;8356067;28;28197;-59
2022/04/17 03:52:05;;;;;;;25.35;18.73;;;;;;;;;;8351264;28;27679;-60
2022/04/17 03:56:05;;;;;;;23.88;18.15;;;;;;;;;;8356519;28;28192;-60
2022/04/17 04:00:07;;;;;;;21.75;17.13;;;;;;;;;;8350717;28;28224;-59
2022/04/17 04:04:07;;;;;;;22.02;17.23;;;;;;;;;;8351174;28;27427;-59
2022/04/17 04:08:08;;;;;;;23.33;16.10;;;;;;;;;;8355576;28;27610;-60
2022/04/17 04:12:09;;;;;;;22.10;17.42;;;;;;;;;;8350521;28;27530;-59
2022/04/17 04:16:09;;;;;;;21.95;16.60;;;;;;;;;;8355912;28;27896;-59
2022/04/17 04:20:10;;;;;;;20.43;15.70;;;;;;;;;;8352944;28;27705;-59
2022/04/17 04:24:10;;;;;;;20.42;14.82;;;;;;;;;;8357493;28;28030;-59
2022/04/17 04:32:29;;;;;;;18.35;14.50;;;;;;;;;;8351307;28;27430;-58
2022/04/17 04:36:29;;;;;;;18.83;14.77;;;;;;;;;;8354024;28;27520;-59
2022/04/17 04:40:30;;;;;;;19.50;14.90;;;;;;;;;;8349264;28;27636;-59
2022/04/17 04:44:30;;;;;;;17.95;13.50;;;;;;;;;;8352986;28;27969;-59
2022/04/17 04:52:49;;;;;;;18.88;13.30;;;;;;;;;;8351929;28;27698;-58
2022/04/17 04:56:49;;;;;;;16.00;13.30;;;;;;;;;;8354976;28;27852;-59
2022/04/17 05:05:45;;;;;;;17.75;11.82;;;;;;;;;;8298101;28;27612;-59
2022/04/17 05:09:45;;;;;;;15.73;11.82;;;;;;;;;;8351117;28;27579;-58
2022/04/17 05:13:46;;;;;;;14.20;11.23;;;;;;;;;;8352508;28;27739;-59
2022/04/17 05:17:46;;;;;;;13.95;11.02;;;;;;;;;;8345808;28;28258;-59
2022/04/17 05:21:51;;;;;;;14.90;11.68;;;;;;;;;;8348260;28;27389;-60
2022/04/17 05:25:55;;;;;;;14.13;10.60;;;;;;;;;;8354923;28;27779;-58
2022/04/17 05:29:55;;;;;;;13.65;10.10;;;;;;;;;;8346748;28;28009;-57
2022/04/17 05:33:56;;;;;;;14.83;10.10;;;;;;;;;;8350593;28;27760;-58
2022/04/17 05:37:56;;;;;;;15.05;10.50;;;;;;;;;;8352478;28;27628;-59
2022/04/17 05:41:57;;;;;;;12.43;9.20;;;;;;;;;;8348773;28;28246;-60
2022/04/17 05:45:58;;;;;;;12.80;9.63;;;;;;;;;;8351489;28;27988;-59
2022/04/17 05:49:59;;;;;;;13.60;9.68;;;;;;;;;;8345727;28;27559;-59
2022/04/17 05:54:00;;;;;;;11.70;9.63;;;;;;;;;;8352773;28;27602;-60
2022/04/17 05:58:01;;;;;;;15.60;9.60;;;;;;;;;;8352023;28;28442;-59
2022/04/17 06:02:01;;;;;;;13.13;9.20;;;;;;;;;;8351130;28;27304;-59
2022/04/17 06:06:01;;;;;;;12.10;8.30;;;;;;;;;;8351730;28;27913;-59
2022/04/17 06:10:02;;;;;;;10.52;8.02;;;;;;;;;;8349034;28;28040;-59
2022/04/17 06:14:06;;;;;;;13.25;8.40;;;;;;;;;;8350946;28;29541;-58
2022/04/17 06:18:06;;;;;;;11.40;8.35;;;;;;;;;;8351536;28;27693;-59
2022/04/17 06:22:07;;;;;;;11.13;8.07;;;;;;;;;;8346049;28;27893;-59
2022/04/17 06:26:09;;;;;;;11.43;7.95;;;;;;;;;;8353509;28;27806;-58
2022/04/17 06:30:10;;;;;;;11.25;7.35;;;;;;;;;;8347008;28;28490;-59
2022/04/17 06:34:12;;;;;;;11.02;7.55;;;;;;;;;;8352209;28;27785;-59
2022/04/17 06:38:15;;;;;;;11.27;7.47;;;;;;;;;;8350104;28;27443;-57
2022/04/17 06:42:16;;;;;;;9.50;7.35;;;;;;;;;;8349024;28;27735;-58
2022/04/17 06:46:16;;;;;;;9.38;6.78;;;;;;;;;;8351489;28;27857;-59
2022/04/17 06:50:18;;;;;;;10.38;7.35;;;;;;;;;;8349841;28;27483;-59
2022/04/17 06:54:18;;;;;;;11.00;7.18;;;;;;;;;;8354847;28;27686;-59
2022/04/17 06:58:19;;;;;;;14.15;7.70;;;;;;;;;;8356237;28;27826;-60
2022/04/17 07:02:19;;;;;;;12.50;7.78;;;;;;;;;;8353841;28;27485;-60
2022/04/17 07:06:19;;;;;;;12.27;7.45;;;;;;;;;;8357157;28;27761;-60
2022/04/17 07:10:19;;;;;;;10.60;7.00;;;;;;;;;;8354741;28;28247;-58
2022/04/17 07:14:21;;;;;;;12.07;7.38;;;;;;;;;;8356568;28;27327;-59
2022/04/17 07:18:21;;;;;;;11.63;6.97;;;;;;;;;;8361504;28;27698;-57
2022/04/17 07:22:21;;;;;;;10.00;6.57;;;;;;;;;;8351889;28;27344;-57
2022/04/17 07:26:21;;;;;;;10.57;6.80;;;;;;;;;;8358083;28;27826;-59
2022/04/17 07:30:22;;;;;;;10.77;6.70;;;;;;;;;;8352555;28;27700;-58
2022/04/17 07:34:23;;;;;;;10.73;6.60;;;;;;;;;;8354526;28;27474;-58
2022/04/17 07:38:23;;;;;;;12.10;7.27;;;;;;;;;;8354580;28;27933;-58
2022/04/17 07:42:23;;;;;;;11.52;7.05;;;;;;;;;;8355221;28;27858;-58
2022/04/17 07:46:23;;;;;;;11.35;6.60;;;;;;;;;;8352762;28;27418;-60
2022/04/17 07:50:27;;;;;;;10.13;6.22;;;;;;;;;;8352475;28;28664;-58
2022/04/17 07:54:27;;;;;;;11.23;6.72;;;;;;;;;;8354702;28;27477;-58
2022/04/17 07:58:38;;;;;;;11.43;6.97;;;;;;;;;;8357703;28;28261;-57
2022/04/17 08:02:50;;;;;;;13.07;6.55;;;;;;;;;;8356140;28;27774;-60
2022/04/17 08:06:50;;;;;;;14.02;6.95;;;;;;;;;;8355035;28;27545;-58
2022/04/17 08:10:50;;;;;;;9.55;6.50;;;;;;;;;;8351220;28;27497;-59
2022/04/17 08:14:50;;;;;;;11.07;6.97;;;;;;;;;;8354501;28;28025;-57
2022/04/17 08:18:50;;;;;;;12.35;7.03;;;;;;;;;;8350632;28;28278;-59
2022/04/17 08:22:51;;;;;;;11.80;6.63;;;;;;;;;;8352480;28;27214;-59
2022/04/17 08:26:52;;;;;;;11.23;6.63;;;;;;;;;;8355325;28;27608;-59
2022/04/17 08:30:52;;;;;;;11.15;6.78;;;;;;;;;;8350251;28;27618;-58
2022/04/17 08:34:52;;;;;;;10.88;6.78;;;;;;;;;;8355044;28;27866;-59
2022/04/17 08:38:52;;;;;;;10.70;6.50;;;;;;;;;;8349131;28;27773;-60
2022/04/17 08:42:53;;;;;;;8.63;5.45;;;;;;;;;;8356844;28;28291;-58
2022/04/17 08:46:54;;;;;;;8.10;5.20;;;;;;;;;;8358243;28;28192;-59
2022/04/17 08:50:55;;;;;;;7.55;5.30;;;;;;;;;;8351557;28;28390;-58
2022/04/17 08:54:57;;;;;;;6.57;4.75;;;;;;;;;;8354266;28;28581;-59
2022/04/17 08:58:58;;;;;;;7.88;4.65;;;;;;;;;;8351296;28;28349;-58
2022/04/17 09:02:58;;;;;;;6.53;4.50;;;;;;;;;;8351856;28;28253;-58
2022/04/17 09:07:00;;;;;;;6.82;4.80;;;;;;;;;;8351579;28;28130;-58
2022/04/17 09:11:00;;;;;;;4.88;4.00;;;;;;;;;;8350155;28;27775;-58
2022/04/17 09:15:00;;;;;;;6.07;3.78;;;;;;;;;;8348324;28;27614;-59
2022/04/17 09:19:10;;;;;;;6.03;4.28;;;;;;;;;;8350537;28;28446;-60
2022/04/17 09:23:14;;;;;;;7.05;3.95;;;;;;;;;;8347783;28;27549;-57
2022/04/17 09:27:14;;;;;;;15.82;3.47;;;;;;;;;;8352797;28;27771;-59
2022/04/17 09:31:14;;;;;;;5.60;2.90;;;;;;;;;;8349066;28;27911;-58
2022/04/17 09:35:15;;;;;;;4.53;2.83;;;;;;;;;;8350053;28;27825;-60
2022/04/17 09:39:15;;;;;;;5.28;2.97;;;;;;;;;;8347580;28;27781;-56
2022/04/17 09:43:17;;;;;;;7.18;2.83;;;;;;;;;;8352328;28;27423;-59
2022/04/17 09:47:21;;;;;;;4.75;3.15;;;;;;;;;;8354593;28;28204;-61
2022/04/17 09:51:28;;;;;;;3.33;2.28;;;;;;;;;;8353451;28;29108;-59
2022/04/17 09:55:28;;;;;;;3.80;2.50;;;;;;;;;;8348694;28;27864;-60
2022/04/17 09:59:28;;;;;;;4.43;2.75;;;;;;;;;;8346230;28;27332;-61
2022/04/17 10:03:29;;;;;;;3.85;2.42;;;;;;;;;;8349477;28;27857;-59
2022/04/17 10:07:30;;;;;;;4.90;2.55;;;;;;;;;;8353787;28;27664;-60
2022/04/17 10:11:32;;;;;;;2.50;2.10;;;;;;;;;;8351629;28;28911;-61
2022/04/17 10:15:33;;;;;;;4.20;2.80;;;;;;;;;;8351174;28;28309;-60
2022/04/17 10:19:34;;;;;;;5.45;3.05;;;;;;;;;;8347126;28;27895;-61
2022/04/17 10:23:35;;;;;;;5.13;2.97;;;;;;;;;;8352172;28;28079;-55
2022/04/17 10:27:36;;;;;;;3.53;2.53;;;;;;;;;;8350101;28;28243;-59
2022/04/17 10:31:54;;;;;;;5.25;3.10;;;;;;;;;;8349564;28;27870;-59
2022/04/17 10:36:13;;;;;;;3.90;2.97;;;;;;;;;;8353117;28;27608;-59
2022/04/17 10:40:14;;;;;;;4.33;2.70;;;;;;;;;;8352740;28;27621;-59
2022/04/17 10:44:15;;;;;;;5.25;3.08;;;;;;;;;;8356430;28;28231;-60
2022/04/17 10:48:26;;;;;;;4.70;2.92;;;;;;;;;;8351459;28;28297;-59
2022/04/17 10:52:27;;;;;;;4.68;3.28;;;;;;;;;;8352629;28;28342;-61
2022/04/17 10:56:28;;;;;;;9.00;4.10;;;;;;;;;;8350257;28;28234;-59
2022/04/17 11:00:33;;;;;;;7.22;2.95;;;;;;;;;;7441637;28;10000935;-58
2022/04/17 11:04:55;;;;;;;10.02;2.90;;;;;;;;;;8342769;28;28373;-61
2022/04/17 11:09:03;;;;;;;7.00;2.95;;;;;;;;;;8340365;28;28836;-56
2022/04/17 11:13:04;;;;;;;6.68;2.80;;;;;;;;;;8343893;28;27845;-59
2022/04/17 11:17:08;;;;;;;6.30;2.45;;;;;;;;;;8342978;28;27606;-61
2022/04/17 11:21:09;;;;;;;5.10;2.70;;;;;;;;;;8341159;28;27766;-59
2022/04/17 11:25:11;;;;;;;6.60;3.03;;;;;;;;;;8339917;28;27846;-58
2022/04/17 11:29:12;;;;;;;5.38;2.20;;;;;;;;;;8331389;28;27732;-60
2022/04/17 11:33:12;;;;;;;3.92;2.67;;;;;;;;;;8346566;28;27444;-60
2022/04/17 11:37:15;;;;;;;5.07;2.40;;;;;;;;;;8347810;28;27708;-60
2022/04/17 11:41:18;;;;;;;5.25;2.08;;;;;;;;;;8342072;28;28438;-58
2022/04/17 11:45:27;;;;;;;8.27;2.58;;;;;;;;;;8343468;28;29119;-57
2022/04/17 11:49:32;;;;;;;13.73;4.20;;;;;;;;;;8339506;28;27554;-57
2022/04/17 11:53:33;;;;;;;9.77;3.42;;;;;;;;;;8348005;28;28148;-58
2022/04/17 11:57:33;;;;;;;9.25;3.85;;;;;;;;;;8344617;28;27558;-57
2022/04/17 12:01:34;;;;;;;9.52;3.38;;;;;;;;;;8345138;28;28425;-57
2022/04/17 12:05:36;;;;;;;6.93;2.85;;;;;;;;;;8345939;28;27999;-55
2022/04/17 12:09:36;;;;;;;6.28;3.20;;;;;;;;;;8344361;28;28008;-59
2022/04/17 12:13:37;;;;;;;9.33;3.67;;;;;;;;;;8347398;28;27421;-57
2022/04/17 12:17:37;;;;;;;7.80;3.13;;;;;;;;;;8345246;28;28405;-57
2022/04/17 12:21:37;;;;;;;6.15;3.35;;;;;;;;;;8338103;28;29241;-59
2022/04/17 12:25:38;;;;;;;4.68;2.78;;;;;;;;;;8342732;28;28262;-59
2022/04/17 12:29:41;;;;;;;5.63;2.75;;;;;;;;;;8340978;28;28754;-56
2022/04/17 12:33:41;;;;;;;4.75;2.28;;;;;;;;;;8345567;28;28515;-56
2022/04/17 12:37:41;;;;;;;5.53;2.80;;;;;;;;;;8345691;28;27522;-57
2022/04/17 12:41:46;;;;;;;5.45;2.72;;;;;;;;;;8341417;28;28126;-58
2022/04/17 12:45:57;;;;;;;4.75;2.45;;;;;;;;;;8343618;28;27748;-56
2022/04/17 12:50:08;;;;;;;5.72;2.28;;;;;;;;;;8342483;28;28080;-57
2022/04/17 12:54:10;;;;;;;4.55;2.42;;;;;;;;;;8347435;28;28035;-57
2022/04/17 12:58:10;;;;;;;3.80;2.00;;;;;;;;;;8345533;28;27795;-56
2022/04/17 13:02:18;;;;;;;3.85;1.98;;;;;;;;;;8334976;28;27716;-60
2022/04/17 13:06:19;;;;;;;4.50;2.08;;;;;;;;;;8343153;28;28731;-57
2022/04/17 13:10:28;;;;;;;7.47;1.80;;;;;;;;;;8339774;28;28116;-59
2022/04/17 13:14:29;;;;;;;4.72;2.13;;;;;;;;;;8340559;28;30011;-60
2022/04/17 13:18:31;;;;;;;3.75;2.10;;;;;;;;;;8347577;28;27904;-61
2022/04/17 13:22:32;;;;;;;11.30;3.15;;;;;;;;;;8342783;28;27868;-61
2022/04/17 13:26:32;;;;;;;15.45;3.20;;;;;;;;;;8342650;28;28210;-60
2022/04/17 13:30:32;;;;;;;18.05;4.10;;;;;;;;;;8343855;28;27959;-59
2022/04/17 13:34:33;;;;;;;13.45;2.50;;;;;;;;;;8347089;28;27782;-60
2022/04/17 13:38:33;;;;;;;12.82;3.85;;;;;;;;;;8345383;28;28226;-60
2022/04/17 13:42:33;;;;;;;14.68;3.65;;;;;;;;;;8359033;28;28066;-57
2022/04/17 13:46:34;;;;;;;9.65;3.15;;;;;;;;;;8344185;28;27825;-57
2022/04/17 13:50:40;;;;;;;8.93;3.42;;;;;;;;;;8338708;28;27893;-61
2022/04/17 13:54:40;;;;;;;10.60;3.83;;;;;;;;;;8345868;28;27543;-60
2022/04/17 13:58:41;;;;;;;10.77;2.77;;;;;;;;;;8349440;28;27741;-59
2022/04/17 14:02:41;;;;;;;6.40;2.72;;;;;;;;;;8344053;28;27853;-58
2022/04/17 14:06:41;;;;;;;4.95;2.67;;;;;;;;;;8350607;28;27739;-60
2022/04/17 14:10:42;;;;;;;7.18;3.17;;;;;;;;;;8349717;28;27985;-59
2022/04/17 14:14:42;;;;;;;11.75;3.03;;;;;;;;;;8352103;28;27484;-61
2022/04/17 14:18:43;;;;;;;5.78;1.80;;;;;;;;;;8350872;28;28233;-57
2022/04/17 14:22:43;;;;;;;6.10;2.72;;;;;;;;;;8350592;28;27906;-57
2022/04/17 14:26:43;;;;;;;5.50;2.33;;;;;;;;;;8351412;28;28732;-59
2022/04/17 14:30:44;;;;;;;6.53;2.73;;;;;;;;;;8349965;28;27824;-58
2022/04/17 14:34:47;;;;;;;8.30;2.38;;;;;;;;;;8352535;28;27697;-58
2022/04/17 14:38:48;;;;;;;4.75;2.00;;;;;;;;;;8350340;28;27840;-60
2022/04/17 14:42:48;;;;;;;4.38;2.13;;;;;;;;;;8349896;28;28529;-59
2022/04/17 14:46:48;;;;;;;5.80;1.90;;;;;;;;;;8349426;28;27898;-60
2022/04/17 14:50:48;;;;;;;4.07;2.10;;;;;;;;;;8347176;28;27635;-61
2022/04/17 14:54:49;;;;;;;2.90;1.67;;;;;;;;;;8352381;28;27597;-59
2022/04/17 14:58:49;;;;;;;3.58;2.08;;;;;;;;;;8350007;28;27705;-60
2022/04/17 15:02:49;;;;;;;4.30;1.73;;;;;;;;;;8346495;28;27895;-59
2022/04/17 15:06:50;;;;;;;3.85;1.83;;;;;;;;;;8350109;28;27683;-60
2022/04/17 15:10:51;;;;;;;5.30;2.08;;;;;;;;;;8345473;28;27740;-59
2022/04/17 15:14:52;;;;;;;4.55;1.70;;;;;;;;;;8352565;28;28195;-59
2022/04/17 15:18:53;;;;;;;3.25;1.50;;;;;;;;;;8346400;28;27711;-58
2022/04/17 15:22:53;;;;;;;4.23;1.80;;;;;;;;;;8345438;28;27621;-61
2022/04/17 15:26:53;;;;;;;4.90;2.22;;;;;;;;;;8350542;28;28771;-56
2022/04/17 15:30:53;;;;;;;3.10;1.70;;;;;;;;;;8347472;28;28279;-60
2022/04/17 15:34:53;;;;;;;3.30;1.60;;;;;;;;;;8349589;28;27593;-61
2022/04/17 15:38:54;;;;;;;4.22;1.88;;;;;;;;;;8346924;28;27743;-58
2022/04/17 15:42:54;;;;;;;3.22;1.40;;;;;;;;;;8349118;28;28264;-59
2022/04/17 15:51:13;;;;;;;3.28;1.80;;;;;;;;;;8345857;28;27630;-58
2022/04/17 15:55:15;;;;;;;2.22;1.38;;;;;;;;;;8353818;28;28287;-58
2022/04/17 15:59:16;;;;;;;3.72;1.50;;;;;;;;;;8346414;28;28099;-59
2022/04/17 16:03:17;;;;;;;2.25;1.73;;;;;;;;;;8349296;28;27762;-59
2022/04/17 16:07:17;;;;;;;2.13;1.35;;;;;;;;;;8351055;28;28277;-55
2022/04/17 16:11:18;;;;;;;3.13;1.48;;;;;;;;;;8349145;28;27548;-58
2022/04/17 16:15:18;;;;;;;2.78;1.50;;;;;;;;;;8350793;28;28108;-59
2022/04/17 16:19:19;;;;;;;2.75;1.42;;;;;;;;;;8346909;28;27975;-61
2022/04/17 16:23:19;;;;;;;2.55;1.30;;;;;;;;;;8367051;28;28033;-59
2022/04/17 16:27:20;;;;;;;2.10;1.35;;;;;;;;;;8344267;28;27992;-61
2022/04/17 16:31:20;;;;;;;1.80;1.25;;;;;;;;;;8345008;28;27652;-57
2022/04/17 16:35:20;;;;;;;2.57;1.60;;;;;;;;;;8348380;28;27708;-57
2022/04/17 16:39:21;;;;;;;2.80;1.80;;;;;;;;;;8348676;28;27307;-58
2022/04/17 16:43:21;;;;;;;2.28;1.40;;;;;;;;;;8350005;28;28242;-56
2022/04/17 16:47:21;;;;;;;2.20;1.45;;;;;;;;;;8348577;28;27592;-57
2022/04/17 16:51:21;;;;;;;5.82;1.73;;;;;;;;;;8344584;28;28373;-57
2022/04/17 16:55:21;;;;;;;3.92;1.60;;;;;;;;;;8349192;28;27967;-56
2022/04/17 16:59:22;;;;;;;3.90;1.77;;;;;;;;;;8344800;28;27781;-60
2022/04/17 17:03:23;;;;;;;2.00;1.30;;;;;;;;;;8347917;28;28170;-57
2022/04/17 17:07:23;;;;;;;4.28;1.50;;;;;;;;;;8349614;28;27978;-59
2022/04/17 17:11:23;;;;;;;2.83;1.40;;;;;;;;;;8348064;28;27970;-56
2022/04/17 17:15:23;;;;;;;3.28;1.73;;;;;;;;;;8348860;28;28300;-55
2022/04/17 17:19:24;;;;;;;4.10;1.98;;;;;;;;;;8345228;28;27805;-59
2022/04/17 17:23:24;;;;;;;1.90;1.30;;;;;;;;;;8347432;28;27406;-59
2022/04/17 17:27:24;;;;;;;7.20;1.60;;;;;;;;;;8350980;28;28409;-58
2022/04/17 17:31:24;;;;;;;4.20;1.60;;;;;;;;;;8344185;28;27402;-53
2022/04/17 17:35:25;;;;;;;3.00;1.40;;;;;;;;;;8349849;28;28004;-58
2022/04/17 17:39:28;;;;;;;4.38;1.70;;;;;;;;;;8345652;28;27709;-56
2022/04/17 17:43:29;;;;;;;2.55;1.38;;;;;;;;;;8346624;28;29272;-57
2022/04/17 17:47:30;;;;;;;4.50;2.03;;;;;;;;;;8347485;28;27560;-59
2022/04/17 17:51:31;;;;;;;3.00;1.30;;;;;;;;;;8344006;28;27993;-58
2022/04/17 17:55:31;;;;;;;3.30;1.43;;;;;;;;;;8346853;28;27852;-59
2022/04/17 17:59:32;;;;;;;4.22;1.55;;;;;;;;;;8347390;28;27833;-59
2022/04/17 18:03:33;;;;;;;3.45;1.42;;;;;;;;;;8346858;28;27661;-59
2022/04/17 18:16:11;;;;;;;3.40;1.35;;;;;;;;;;8347381;28;28105;-60
2022/04/17 18:20:13;;;;;;;4.85;1.15;;;;;;;;;;8342348;28;27888;-59
2022/04/17 18:24:13;;;;;;;3.15;1.20;;;;;;;;;;8344778;28;28047;-59
2022/04/17 18:28:16;;;;;;;2.85;1.25;;;;;;;;;;8347086;28;27618;-58
2022/04/17 18:32:16;;;;;;;4.68;1.52;;;;;;;;;;8339726;28;28608;-59
2022/04/17 18:36:17;;;;;;;2.90;1.70;;;;;;;;;;8342968;28;27905;-60
2022/04/17 18:40:17;;;;;;;3.30;1.93;;;;;;;;;;8340498;28;28122;-58
2022/04/17 18:44:17;;;;;;;3.58;1.73;;;;;;;;;;8344901;28;28025;-59
2022/04/17 18:48:18;;;;;;;3.25;1.20;;;;;;;;;;8339915;28;27986;-61
2022/04/17 18:52:18;;;;;;;9.93;2.38;;;;;;;;;;8344968;28;27981;-60
2022/04/17 18:56:18;;;;;;;6.70;1.83;;;;;;;;;;8351151;28;28196;-59
2022/04/17 19:00:18;;;;;;;11.10;2.45;;;;;;;;;;8346899;28;27765;-60
2022/04/17 19:04:19;;;;;;;19.33;3.03;;;;;;;;;;8349627;28;27391;-56
2022/04/17 19:08:20;;;;;;;18.23;3.77;;;;;;;;;;8350838;28;27850;-56
2022/04/17 19:16:39;;;;;;;13.13;5.27;;;;;;;;;;8353068;28;28267;-56
2022/04/17 19:20:39;;;;;;;11.25;5.05;;;;;;;;;;8350993;28;27810;-54
2022/04/17 19:24:40;;;;;;;14.60;6.13;;;;;;;;;;8350463;28;27909;-54
2022/04/17 19:28:40;;;;;;;8.57;5.47;;;;;;;;;;8348522;28;27482;-60
2022/04/17 19:37:00;;;;;;;10.05;5.05;;;;;;;;;;8350002;28;29203;-60
2022/04/17 19:41:01;;;;;;;10.07;5.90;;;;;;;;;;8345988;28;28314;-59
2022/04/17 19:45:02;;;;;;;23.95;7.30;;;;;;;;;;8345022;28;27448;-57
2022/04/17 19:49:02;;;;;;;18.90;8.00;;;;;;;;;;8346168;28;27600;-56
2022/04/17 19:53:03;;;;;;;18.83;8.57;;;;;;;;;;8347410;28;27608;-54
2022/04/17 19:57:04;;;;;;;15.52;9.45;;;;;;;;;;8345547;28;28195;-53
2022/04/17 20:01:05;;;;;;;16.73;8.75;;;;;;;;;;8340162;28;28713;-55
2022/04/17 20:05:05;;;;;;;16.75;8.45;;;;;;;;;;8345666;28;28297;-56
2022/04/17 20:09:06;;;;;;;19.95;9.60;;;;;;;;;;8336398;28;28264;-55
2022/04/17 20:13:07;;;;;;;19.65;9.48;;;;;;;;;;8341294;28;27612;-58
2022/04/17 20:17:08;;;;;;;21.83;13.77;;;;;;;;;;8349835;28;27843;-55
2022/04/17 20:21:08;;;;;;;19.77;13.57;;;;;;;;;;8342521;28;28044;-57
2022/04/17 20:25:08;;;;;;;22.95;14.75;;;;;;;;;;8343532;28;27981;-56
2022/04/17 20:29:08;;;;;;;24.63;13.43;;;;;;;;;;8344290;28;28554;-54
2022/04/17 20:33:09;;;;;;;21.23;15.95;;;;;;;;;;8361812;28;28889;-55
2022/04/17 20:37:09;;;;;;;18.52;15.30;;;;;;;;;;8346127;28;28531;-58
2022/04/17 20:41:09;;;;;;;22.40;15.25;;;;;;;;;;8339744;28;27774;-57
2022/04/17 20:53:47;;;;;;;21.70;17.33;;;;;;;;;;8345143;28;27543;-58
2022/04/17 20:57:47;;;;;;;21.90;17.15;;;;;;;;;;8346622;28;28036;-55
2022/04/17 21:01:48;;;;;;;23.10;16.97;;;;;;;;;;8342734;28;27832;-55
2022/04/17 21:05:52;;;;;;;23.05;17.98;;;;;;;;;;8348629;28;28169;-55
2022/04/17 21:09:53;;;;;;;27.77;19.60;;;;;;;;;;8340469;28;27698;-57
2022/04/17 21:13:53;;;;;;;24.85;19.27;;;;;;;;;;8346821;28;28608;-53
2022/04/17 21:17:53;;;;;;;28.33;21.40;;;;;;;;;;8346140;28;27839;-53
2022/04/17 21:21:53;;;;;;;27.98;21.48;;;;;;;;;;8342237;28;27795;-53
2022/04/17 21:25:54;;;;;;;27.80;21.43;;;;;;;;;;8344830;28;28447;-56
2022/04/17 21:29:54;;;;;;;28.17;21.40;;;;;;;;;;8338390;28;27972;-57
2022/04/17 21:33:54;;;;;;;29.02;22.17;;;;;;;;;;8344697;28;27972;-56
2022/04/17 21:37:55;;;;;;;35.67;26.92;;;;;;;;;;8341754;28;28530;-56
2022/04/17 21:41:55;;;;;;;34.25;26.52;;;;;;;;;;8338230;28;27386;-55
2022/04/17 21:45:55;;;;;;;33.22;25.40;;;;;;;;;;8344201;28;28235;-56
2022/04/17 21:49:56;;;;;;;34.38;24.77;;;;;;;;;;8343880;28;27625;-55
2022/04/17 21:53:57;;;;;;;33.65;25.77;;;;;;;;;;8348350;28;27971;-54
2022/04/17 21:57:57;;;;;;;31.55;23.73;;;;;;;;;;8346926;28;28048;-56
2022/04/17 22:06:16;;;;;;;33.83;25.47;;;;;;;;;;8348316;28;27754;-57
2022/04/17 22:10:16;;;;;;;33.50;24.83;;;;;;;;;;8342096;28;27646;-53
2022/04/17 22:14:17;;;;;;;34.30;25.75;;;;;;;;;;8346824;28;28829;-54
2022/04/17 22:18:17;;;;;;;34.63;25.45;;;;;;;;;;8346685;28;27636;-54
2022/04/17 22:22:18;;;;;;;34.38;25.85;;;;;;;;;;8340361;28;28303;-53
2022/04/17 22:26:18;;;;;;;32.80;25.20;;;;;;;;;;8348651;28;30281;-58
2022/04/17 22:30:18;;;;;;;32.45;24.70;;;;;;;;;;8345976;28;28463;-56
2022/04/17 22:34:18;;;;;;;33.72;25.05;;;;;;;;;;8349470;28;27614;-59
2022/04/17 22:38:19;;;;;;;32.58;24.02;;;;;;;;;;8351967;28;28431;-58
2022/04/17 22:42:19;;;;;;;32.15;25.42;;;;;;;;;;8346116;28;27735;-59
2022/04/17 22:46:19;;;;;;;31.98;25.00;;;;;;;;;;8349546;28;27781;-60
2022/04/17 22:50:19;;;;;;;30.40;25.00;;;;;;;;;;8343534;28;27621;-60
2022/04/17 22:54:20;;;;;;;34.93;26.63;;;;;;;;;;8350121;28;27801;-57
2022/04/17 22:58:20;;;;;;;31.27;25.23;;;;;;;;;;8349474;28;27487;-59
2022/04/17 23:02:21;;;;;;;33.53;25.63;;;;;;;;;;8344260;28;27794;-56
2022/04/17 23:06:21;;;;;;;33.83;26.88;;;;;;;;;;8350513;28;27620;-59
2022/04/17 23:10:21;;;;;;;33.95;26.77;;;;;;;;;;8344329;28;27900;-57
2022/04/17 23:14:21;;;;;;;35.47;27.40;;;;;;;;;;8348486;28;27766;-59
2022/04/17 23:18:22;;;;;;;35.83;27.80;;;;;;;;;;8351730;28;27415;-59
2022/04/17 23:22:22;;;;;;;34.30;26.58;;;;;;;;;;8340414;28;27989;-57
2022/04/17 23:26:22;;;;;;;34.35;26.55;;;;;;;;;;8352023;28;27480;-57
2022/04/17 23:30:22;;;;;;;33.75;26.50;;;;;;;;;;8343702;28;27676;-57
2022/04/17 23:34:22;;;;;;;34.40;25.45;;;;;;;;;;8347417;28;28323;-57
2022/04/17 23:38:23;;;;;;;30.42;24.35;;;;;;;;;;8350613;28;28844;-60
2022/04/17 23:42:23;;;;;;;33.13;24.97;;;;;;;;;;8346261;28;27996;-59
2022/04/17 23:46:26;;;;;;;32.10;23.75;;;;;;;;;;8347808;28;27673;-58
2022/04/17 23:50:27;;;;;;;29.15;23.17;;;;;;;;;;8343189;28;27816;-60
2022/04/17 23:54:27;;;;;;;30.10;23.47;;;;;;;;;;8344106;28;27827;-59
2022/04/17 23:58:27;;;;;;;29.80;23.33;;;;;;;;;;8347546;28;27402;-56
